sensor_id;sensor_type;location;lat;lon;timestamp;temperature;humidity
72288;SHT31;60221;45.696;16.076;2022-10-19T00:01:04;14.95;63.52
72288;SHT31;60221;45.696;16.076;2022-10-19T00:03:32;14.86;63.96
72288;SHT31;60221;45.696;16.076;2022-10-19T00:05:59;15.03;66.53
72288;SHT31;60221;45.696;16.076;2022-10-19T00:08:26;15.54;64.93
72288;SHT31;60221;45.696;16.076;2022-10-19T00:10:52;15.50;63.73
72288;SHT31;60221;45.696;16.076;2022-10-19T00:13:18;15.33;62.96
72288;SHT31;60221;45.696;16.076;2022-10-19T00:15:45;15.12;62.17
72288;SHT31;60221;45.696;16.076;2022-10-19T00:18:11;14.98;62.26
72288;SHT31;60221;45.696;16.076;2022-10-19T00:20:37;14.83;62.83
72288;SHT31;60221;45.696;16.076;2022-10-19T00:23:03;15.02;65.36
72288;SHT31;60221;45.696;16.076;2022-10-19T00:25:29;15.62;64.33
72288;SHT31;60221;45.696;16.076;2022-10-19T00:27:55;15.69;62.41
72288;SHT31;60221;45.696;16.076;2022-10-19T00:30:21;15.47;62.05
72288;SHT31;60221;45.696;16.076;2022-10-19T00:32:47;15.34;62.40
72288;SHT31;60221;45.696;16.076;2022-10-19T00:35:13;15.20;62.51
72288;SHT31;60221;45.696;16.076;2022-10-19T00:37:39;15.05;62.53
72288;SHT31;60221;45.696;16.076;2022-10-19T00:40:08;15.18;64.61
72288;SHT31;60221;45.696;16.076;2022-10-19T00:42:34;15.72;63.92
72288;SHT31;60221;45.696;16.076;2022-10-19T00:45:08;16.30;62.15
72288;SHT31;60221;45.696;16.076;2022-10-19T00:47:33;16.94;59.58
72288;SHT31;60221;45.696;16.076;2022-10-19T00:49:59;16.59;56.96
72288;SHT31;60221;45.696;16.076;2022-10-19T00:52:26;15.75;57.30
72288;SHT31;60221;45.696;16.076;2022-10-19T00:54:56;15.09;58.35
72288;SHT31;60221;45.696;16.076;2022-10-19T00:57:27;14.58;59.61
72288;SHT31;60221;45.696;16.076;2022-10-19T00:59:56;14.17;60.47
72288;SHT31;60221;45.696;16.076;2022-10-19T01:02:23;13.86;61.42
72288;SHT31;60221;45.696;16.076;2022-10-19T01:04:51;13.58;62.36
72288;SHT31;60221;45.696;16.076;2022-10-19T01:07:19;13.72;65.71
72288;SHT31;60221;45.696;16.076;2022-10-19T01:09:45;14.13;66.28
72288;SHT31;60221;45.696;16.076;2022-10-19T01:18:07;13.76;64.83
72288;SHT31;60221;45.696;16.076;2022-10-19T01:24:02;13.55;65.62
72288;SHT31;60221;45.696;16.076;2022-10-19T01:38:27;13.18;66.64
72288;SHT31;60221;45.696;16.076;2022-10-19T01:41:10;13.14;66.95
72288;SHT31;60221;45.696;16.076;2022-10-19T01:43:56;13.11;67.16
72288;SHT31;60221;45.696;16.076;2022-10-19T01:49:27;13.02;67.74
72288;SHT31;60221;45.696;16.076;2022-10-19T01:52:00;13.00;68.00
72288;SHT31;60221;45.696;16.076;2022-10-19T01:54:27;12.99;68.26
72288;SHT31;60221;45.696;16.076;2022-10-19T01:56:59;12.99;68.80
72288;SHT31;60221;45.696;16.076;2022-10-19T01:59:29;13.14;69.07
72288;SHT31;60221;45.696;16.076;2022-10-19T02:01:58;13.15;68.51
72288;SHT31;60221;45.696;16.076;2022-10-19T02:04:25;13.15;68.38
72288;SHT31;60221;45.696;16.076;2022-10-19T02:06:53;13.17;68.44
72288;SHT31;60221;45.696;16.076;2022-10-19T02:09:20;13.20;68.47
72288;SHT31;60221;45.696;16.076;2022-10-19T02:11:50;13.20;68.38
72288;SHT31;60221;45.696;16.076;2022-10-19T02:14:22;13.21;68.01
72288;SHT31;60221;45.696;16.076;2022-10-19T02:16:54;13.20;67.72
72288;SHT31;60221;45.696;16.076;2022-10-19T02:19:21;13.20;67.62
72288;SHT31;60221;45.696;16.076;2022-10-19T02:21:49;13.17;67.67
72288;SHT31;60221;45.696;16.076;2022-10-19T02:24:16;13.20;67.65
72288;SHT31;60221;45.696;16.076;2022-10-19T02:26:43;13.18;67.69
72288;SHT31;60221;45.696;16.076;2022-10-19T02:29:12;13.20;67.65
72288;SHT31;60221;45.696;16.076;2022-10-19T02:31:39;13.20;67.55
72288;SHT31;60221;45.696;16.076;2022-10-19T02:34:07;13.21;67.44
72288;SHT31;60221;45.696;16.076;2022-10-19T02:36:34;13.20;67.43
72288;SHT31;60221;45.696;16.076;2022-10-19T02:39:00;13.21;67.41
72288;SHT31;60221;45.696;16.076;2022-10-19T02:41:41;13.20;67.19
72288;SHT31;60221;45.696;16.076;2022-10-19T02:44:22;13.18;67.19
72288;SHT31;60221;45.696;16.076;2022-10-19T02:47:03;13.13;67.18
72288;SHT31;60221;45.696;16.076;2022-10-19T02:49:32;13.08;67.32
72288;SHT31;60221;45.696;16.076;2022-10-19T02:52:05;13.27;68.31
72288;SHT31;60221;45.696;16.076;2022-10-19T02:54:33;13.41;68.23
72288;SHT31;60221;45.696;16.076;2022-10-19T02:57:00;13.50;67.60
72288;SHT31;60221;45.696;16.076;2022-10-19T02:59:28;13.37;66.89
72288;SHT31;60221;45.696;16.076;2022-10-19T03:01:54;13.24;66.91
72288;SHT31;60221;45.696;16.076;2022-10-19T03:04:21;13.21;67.03
72288;SHT31;60221;45.696;16.076;2022-10-19T03:06:47;13.17;67.16
72288;SHT31;60221;45.696;16.076;2022-10-19T03:09:13;13.14;67.23
72288;SHT31;60221;45.696;16.076;2022-10-19T03:11:39;13.13;67.41
72288;SHT31;60221;45.696;16.076;2022-10-19T03:14:05;13.15;67.44
72288;SHT31;60221;45.696;16.076;2022-10-19T03:16:34;13.10;67.34
72288;SHT31;60221;45.696;16.076;2022-10-19T03:19:00;13.03;67.39
72288;SHT31;60221;45.696;16.076;2022-10-19T03:21:26;13.02;67.93
72288;SHT31;60221;45.696;16.076;2022-10-19T03:23:52;13.10;67.87
72288;SHT31;60221;45.696;16.076;2022-10-19T03:26:19;13.10;67.89
72288;SHT31;60221;45.696;16.076;2022-10-19T03:28:45;13.14;67.90
72288;SHT31;60221;45.696;16.076;2022-10-19T03:31:11;13.18;67.88
72288;SHT31;60221;45.696;16.076;2022-10-19T03:33:37;13.17;67.83
72288;SHT31;60221;45.696;16.076;2022-10-19T03:38:53;13.14;67.76
72288;SHT31;60221;45.696;16.076;2022-10-19T03:41:22;13.13;67.99
72288;SHT31;60221;45.696;16.076;2022-10-19T03:43:50;13.13;68.06
72288;SHT31;60221;45.696;16.076;2022-10-19T03:46:17;13.11;68.19
72288;SHT31;60221;45.696;16.076;2022-10-19T03:48:44;13.13;68.29
72288;SHT31;60221;45.696;16.076;2022-10-19T03:51:15;13.15;68.31
72288;SHT31;60221;45.696;16.076;2022-10-19T03:53:43;13.10;68.28
72288;SHT31;60221;45.696;16.076;2022-10-19T03:56:18;13.10;68.44
72288;SHT31;60221;45.696;16.076;2022-10-19T03:58:47;13.11;68.66
72288;SHT31;60221;45.696;16.076;2022-10-19T04:01:22;13.13;68.67
72288;SHT31;60221;45.696;16.076;2022-10-19T04:03:45;13.14;68.65
72288;SHT31;60221;45.696;16.076;2022-10-19T04:06:16;13.14;68.55
72288;SHT31;60221;45.696;16.076;2022-10-19T04:08:46;13.14;68.42
72288;SHT31;60221;45.696;16.076;2022-10-19T04:11:16;13.13;68.27
72288;SHT31;60221;45.696;16.076;2022-10-19T04:13:43;13.04;67.60
72288;SHT31;60221;45.696;16.076;2022-10-19T04:16:13;13.42;71.26
72288;SHT31;60221;45.696;16.076;2022-10-19T04:18:39;14.34;69.76
72288;SHT31;60221;45.696;16.076;2022-10-19T04:21:06;14.74;66.77
72288;SHT31;60221;45.696;16.076;2022-10-19T04:23:35;14.99;65.57
72288;SHT31;60221;45.696;16.076;2022-10-19T04:26:06;15.12;64.70
72288;SHT31;60221;45.696;16.076;2022-10-19T04:28:34;15.13;63.25
72288;SHT31;60221;45.696;16.076;2022-10-19T04:31:05;15.23;62.67
72288;SHT31;60221;45.696;16.076;2022-10-19T04:33:33;15.30;62.32
72288;SHT31;60221;45.696;16.076;2022-10-19T04:36:01;15.41;61.96
72288;SHT31;60221;45.696;16.076;2022-10-19T04:38:29;15.43;61.67
72288;SHT31;60221;45.696;16.076;2022-10-19T04:41:00;15.51;61.47
72288;SHT31;60221;45.696;16.076;2022-10-19T04:43:27;15.60;61.08
72288;SHT31;60221;45.696;16.076;2022-10-19T04:45:54;16.34;62.66
72288;SHT31;60221;45.696;16.076;2022-10-19T04:48:20;17.16;59.66
72288;SHT31;60221;45.696;16.076;2022-10-19T04:50:47;16.87;56.14
72288;SHT31;60221;45.696;16.076;2022-10-19T04:53:15;15.95;56.56
72288;SHT31;60221;45.696;16.076;2022-10-19T04:55:42;15.22;57.93
72288;SHT31;60221;45.696;16.076;2022-10-19T04:58:08;14.70;59.24
72288;SHT31;60221;45.696;16.076;2022-10-19T05:00:37;14.23;60.37
72288;SHT31;60221;45.696;16.076;2022-10-19T05:03:04;13.85;61.15
72288;SHT31;60221;45.696;16.076;2022-10-19T05:05:32;13.47;61.97
72288;SHT31;60221;45.696;16.076;2022-10-19T05:07:59;14.13;69.02
72288;SHT31;60221;45.696;16.076;2022-10-19T05:10:25;15.10;66.42
72288;SHT31;60221;45.696;16.076;2022-10-19T05:12:52;15.61;64.06
72288;SHT31;60221;45.696;16.076;2022-10-19T05:15:18;15.62;62.87
72288;SHT31;60221;45.696;16.076;2022-10-19T05:17:45;15.64;62.20
72288;SHT31;60221;45.696;16.076;2022-10-19T05:20:11;15.62;61.99
72288;SHT31;60221;45.696;16.076;2022-10-19T05:22:38;15.64;61.60
72288;SHT31;60221;45.696;16.076;2022-10-19T05:25:07;15.58;61.37
72288;SHT31;60221;45.696;16.076;2022-10-19T05:27:33;15.61;61.41
72288;SHT31;60221;45.696;16.076;2022-10-19T05:29:59;15.65;61.25
72288;SHT31;60221;45.696;16.076;2022-10-19T05:32:27;15.67;61.24
72288;SHT31;60221;45.696;16.076;2022-10-19T05:34:53;15.86;61.43
72288;SHT31;60221;45.696;16.076;2022-10-19T05:37:19;15.77;60.63
72288;SHT31;60221;45.696;16.076;2022-10-19T05:39:46;15.78;60.76
72288;SHT31;60221;45.696;16.076;2022-10-19T05:42:13;15.62;60.53
72288;SHT31;60221;45.696;16.076;2022-10-19T05:44:39;15.72;61.18
72288;SHT31;60221;45.696;16.076;2022-10-19T05:47:05;15.65;60.86
72288;SHT31;60221;45.696;16.076;2022-10-19T05:49:31;15.68;61.23
72288;SHT31;60221;45.696;16.076;2022-10-19T05:51:57;16.23;61.87
72288;SHT31;60221;45.696;16.076;2022-10-19T05:54:23;16.68;61.05
72288;SHT31;60221;45.696;16.076;2022-10-19T05:56:49;17.12;59.22
72288;SHT31;60221;45.696;16.076;2022-10-19T05:59:19;16.78;56.63
72288;SHT31;60221;45.696;16.076;2022-10-19T06:01:47;15.98;57.27
72288;SHT31;60221;45.696;16.076;2022-10-19T06:04:14;15.40;58.25
72288;SHT31;60221;45.696;16.076;2022-10-19T06:06:42;14.93;59.14
72288;SHT31;60221;45.696;16.076;2022-10-19T06:09:09;14.58;60.10
72288;SHT31;60221;45.696;16.076;2022-10-19T06:11:39;14.26;60.52
72288;SHT31;60221;45.696;16.076;2022-10-19T06:14:13;14.05;61.74
72288;SHT31;60221;45.696;16.076;2022-10-19T06:16:39;14.03;64.32
72288;SHT31;60221;45.696;16.076;2022-10-19T06:19:05;15.48;69.28
72288;SHT31;60221;45.696;16.076;2022-10-19T06:21:33;16.94;63.57
72288;SHT31;60221;45.696;16.076;2022-10-19T06:24:03;17.73;60.27
72288;SHT31;60221;45.696;16.076;2022-10-19T06:26:32;17.85;56.94
72288;SHT31;60221;45.696;16.076;2022-10-19T06:29:01;17.06;56.26
72288;SHT31;60221;45.696;16.076;2022-10-19T06:31:30;16.30;57.51
72288;SHT31;60221;45.696;16.076;2022-10-19T06:33:57;15.71;58.44
72288;SHT31;60221;45.696;16.076;2022-10-19T06:36:27;15.33;59.89
72288;SHT31;60221;45.696;16.076;2022-10-19T06:38:53;15.02;60.96
72288;SHT31;60221;45.696;16.076;2022-10-19T06:41:22;14.74;61.54
72288;SHT31;60221;45.696;16.076;2022-10-19T06:43:54;15.09;66.34
72288;SHT31;60221;45.696;16.076;2022-10-19T06:46:23;16.67;68.36
72288;SHT31;60221;45.696;16.076;2022-10-19T06:48:53;18.02;63.14
72288;SHT31;60221;45.696;16.076;2022-10-19T06:51:21;18.80;59.42
72288;SHT31;60221;45.696;16.076;2022-10-19T06:53:47;18.52;56.61
72288;SHT31;60221;45.696;16.076;2022-10-19T06:56:14;17.66;57.16
72288;SHT31;60221;45.696;16.076;2022-10-19T06:58:40;16.98;58.47
72288;SHT31;60221;45.696;16.076;2022-10-19T07:01:07;16.56;59.57
72288;SHT31;60221;45.696;16.076;2022-10-19T07:03:35;16.30;60.90
72288;SHT31;60221;45.696;16.076;2022-10-19T07:06:07;16.06;60.80
72288;SHT31;60221;45.696;16.076;2022-10-19T07:08:36;15.91;62.34
72288;SHT31;60221;45.696;16.076;2022-10-19T07:11:10;15.94;64.95
72288;SHT31;60221;45.696;16.076;2022-10-19T07:13:37;16.01;64.48
72288;SHT31;60221;45.696;16.076;2022-10-19T07:16:11;16.01;66.54
72288;SHT31;60221;45.696;16.076;2022-10-19T07:18:39;15.95;65.29
72288;SHT31;60221;45.696;16.076;2022-10-19T07:21:10;15.91;66.28
72288;SHT31;60221;45.696;16.076;2022-10-19T07:23:40;15.91;67.09
72288;SHT31;60221;45.696;16.076;2022-10-19T07:26:11;15.89;67.26
72288;SHT31;60221;45.696;16.076;2022-10-19T07:28:40;15.91;67.29
72288;SHT31;60221;45.696;16.076;2022-10-19T07:31:11;15.95;67.97
72288;SHT31;60221;45.696;16.076;2022-10-19T07:33:38;15.99;68.97
72288;SHT31;60221;45.696;16.076;2022-10-19T07:36:07;16.03;68.85
72288;SHT31;60221;45.696;16.076;2022-10-19T07:38:35;16.23;69.85
72288;SHT31;60221;45.696;16.076;2022-10-19T07:41:10;16.36;69.11
72288;SHT31;60221;45.696;16.076;2022-10-19T07:43:42;16.36;68.76
72288;SHT31;60221;45.696;16.076;2022-10-19T07:46:15;16.46;69.42
72288;SHT31;60221;45.696;16.076;2022-10-19T07:48:43;16.67;69.58
72288;SHT31;60221;45.696;16.076;2022-10-19T07:51:12;16.82;69.50
72288;SHT31;60221;45.696;16.076;2022-10-19T07:53:39;16.94;69.32
72288;SHT31;60221;45.696;16.076;2022-10-19T07:56:13;17.08;69.05
72288;SHT31;60221;45.696;16.076;2022-10-19T07:58:40;17.22;69.05
72288;SHT31;60221;45.696;16.076;2022-10-19T08:01:13;17.32;68.85
72288;SHT31;60221;45.696;16.076;2022-10-19T08:03:41;17.44;68.87
72288;SHT31;60221;45.696;16.076;2022-10-19T08:06:12;17.54;68.65
72288;SHT31;60221;45.696;16.076;2022-10-19T08:08:39;17.63;68.49
72288;SHT31;60221;45.696;16.076;2022-10-19T08:11:26;17.66;68.66
72288;SHT31;60221;45.696;16.076;2022-10-19T08:13:53;17.81;68.42
72288;SHT31;60221;45.696;16.076;2022-10-19T08:16:30;17.85;68.22
72288;SHT31;60221;45.696;16.076;2022-10-19T08:19:08;17.91;68.09
72288;SHT31;60221;45.696;16.076;2022-10-19T08:21:37;17.97;68.03
72288;SHT31;60221;45.696;16.076;2022-10-19T08:24:05;18.05;67.88
72288;SHT31;60221;45.696;16.076;2022-10-19T08:26:35;18.11;67.96
72288;SHT31;60221;45.696;16.076;2022-10-19T08:29:13;18.20;68.02
72288;SHT31;60221;45.696;16.076;2022-10-19T08:31:42;18.31;67.87
72288;SHT31;60221;45.696;16.076;2022-10-19T08:34:10;18.36;67.97
72288;SHT31;60221;45.696;16.076;2022-10-19T08:36:36;18.45;68.00
72288;SHT31;60221;45.696;16.076;2022-10-19T08:39:05;18.53;67.68
72288;SHT31;60221;45.696;16.076;2022-10-19T08:42:01;18.57;67.59
72288;SHT31;60221;45.696;16.076;2022-10-19T08:50:33;18.66;67.43
72288;SHT31;60221;45.696;16.076;2022-10-19T08:53:49;18.73;67.13
72288;SHT31;60221;45.696;16.076;2022-10-19T08:56:04;18.82;67.01
72288;SHT31;60221;45.696;16.076;2022-10-19T08:58:26;18.84;66.16
72288;SHT31;60221;45.696;16.076;2022-10-19T09:01:04;18.95;66.21
72288;SHT31;60221;45.696;16.076;2022-10-19T09:04:04;19.00;66.65
72288;SHT31;60221;45.696;16.076;2022-10-19T09:06:45;19.17;65.47
72288;SHT31;60221;45.696;16.076;2022-10-19T09:09:14;19.33;64.93
72288;SHT31;60221;45.696;16.076;2022-10-19T09:11:49;19.65;64.27
72288;SHT31;60221;45.696;16.076;2022-10-19T09:14:30;19.86;64.15
72288;SHT31;60221;45.696;16.076;2022-10-19T09:17:09;19.91;63.71
72288;SHT31;60221;45.696;16.076;2022-10-19T09:19:29;19.93;62.79
72288;SHT31;60221;45.696;16.076;2022-10-19T09:22:01;19.93;62.90
72288;SHT31;60221;45.696;16.076;2022-10-19T09:24:41;19.96;62.86
72288;SHT31;60221;45.696;16.076;2022-10-19T09:27:22;20.10;62.94
72288;SHT31;60221;45.696;16.076;2022-10-19T09:29:58;20.24;62.79
72288;SHT31;60221;45.696;16.076;2022-10-19T09:32:37;20.39;62.64
72288;SHT31;60221;45.696;16.076;2022-10-19T09:35:32;20.60;62.74
72288;SHT31;60221;45.696;16.076;2022-10-19T09:37:56;22.07;62.59
72288;SHT31;60221;45.696;16.076;2022-10-19T09:40:28;23.23;58.66
72288;SHT31;60221;45.696;16.076;2022-10-19T09:42:55;23.30;54.96
72288;SHT31;60221;45.696;16.076;2022-10-19T09:45:46;22.82;55.02
72288;SHT31;60221;45.696;16.076;2022-10-19T09:48:29;22.41;56.38
72288;SHT31;60221;45.696;16.076;2022-10-19T09:50:59;22.14;56.71
72288;SHT31;60221;45.696;16.076;2022-10-19T09:53:28;21.96;56.59
72288;SHT31;60221;45.696;16.076;2022-10-19T09:56:06;21.76;59.50
72288;SHT31;60221;45.696;16.076;2022-10-19T09:58:34;21.56;57.27
72288;SHT31;60221;45.696;16.076;2022-10-19T10:01:02;21.45;58.93
72288;SHT31;60221;45.696;16.076;2022-10-19T10:06:14;21.27;58.38
72288;SHT31;60221;45.696;16.076;2022-10-19T10:08:47;21.26;60.61
72288;SHT31;60221;45.696;16.076;2022-10-19T10:11:35;21.17;58.99
72288;SHT31;60221;45.696;16.076;2022-10-19T10:16:40;21.04;58.37
72288;SHT31;60221;45.696;16.076;2022-10-19T10:19:15;20.94;59.29
72288;SHT31;60221;45.696;16.076;2022-10-19T10:21:53;20.86;58.95
72288;SHT31;60221;45.696;16.076;2022-10-19T10:24:25;20.80;61.32
72288;SHT31;60221;45.696;16.076;2022-10-19T10:27:00;20.71;61.21
72288;SHT31;60221;45.696;16.076;2022-10-19T10:29:27;20.68;62.92
72288;SHT31;60221;45.696;16.076;2022-10-19T10:32:02;21.34;63.97
72288;SHT31;60221;45.696;16.076;2022-10-19T10:34:45;22.43;62.70
72288;SHT31;60221;45.696;16.076;2022-10-19T10:37:32;23.27;59.53
72288;SHT31;60221;45.696;16.076;2022-10-19T10:39:57;23.16;57.23
72288;SHT31;60221;45.696;16.076;2022-10-19T10:42:34;22.65;56.83
72288;SHT31;60221;45.696;16.076;2022-10-19T10:45:02;22.23;57.60
72288;SHT31;60221;45.696;16.076;2022-10-19T10:47:30;21.93;58.03
72288;SHT31;60221;45.696;16.076;2022-10-19T10:50:03;21.74;58.59
72288;SHT31;60221;45.696;16.076;2022-10-19T10:52:32;21.52;59.06
72288;SHT31;60221;45.696;16.076;2022-10-19T10:57:52;21.31;60.11
72288;SHT31;60221;45.696;16.076;2022-10-19T11:00:20;21.21;60.57
72288;SHT31;60221;45.696;16.076;2022-10-19T11:03:03;21.13;61.00
72288;SHT31;60221;45.696;16.076;2022-10-19T11:05:37;20.96;61.25
72288;SHT31;60221;45.696;16.076;2022-10-19T11:08:30;20.86;62.41
72288;SHT31;60221;45.696;16.076;2022-10-19T11:11:05;20.75;62.34
72288;SHT31;60221;45.696;16.076;2022-10-19T11:13:37;20.69;61.17
72288;SHT31;60221;45.696;16.076;2022-10-19T11:16:39;20.60;61.48
72288;SHT31;60221;45.696;16.076;2022-10-19T11:19:34;21.24;63.48
72288;SHT31;60221;45.696;16.076;2022-10-19T11:22:27;22.12;61.70
72288;SHT31;60221;45.696;16.076;2022-10-19T11:28:34;22.02;57.94
72288;SHT31;60221;45.696;16.076;2022-10-19T11:34:03;21.65;58.55
72288;SHT31;60221;45.696;16.076;2022-10-19T11:39:39;21.42;57.64
72288;SHT31;60221;45.696;16.076;2022-10-19T11:42:19;21.35;59.22
72288;SHT31;60221;45.696;16.076;2022-10-19T11:54:22;21.35;58.12
72288;SHT31;60221;45.696;16.076;2022-10-19T12:05:23;21.49;58.75
72288;SHT31;60221;45.696;16.076;2022-10-19T12:08:09;21.51;59.63
72288;SHT31;60221;45.696;16.076;2022-10-19T12:10:46;21.52;60.51
72288;SHT31;60221;45.696;16.076;2022-10-19T12:13:21;21.56;58.83
72288;SHT31;60221;45.696;16.076;2022-10-19T12:15:52;21.59;59.40
72288;SHT31;60221;45.696;16.076;2022-10-19T12:21:23;21.55;59.89
72288;SHT31;60221;45.696;16.076;2022-10-19T12:23:50;21.51;60.07
72288;SHT31;60221;45.696;16.076;2022-10-19T12:26:20;21.48;60.10
72288;SHT31;60221;45.696;16.076;2022-10-19T12:28:54;21.41;59.14
72288;SHT31;60221;45.696;16.076;2022-10-19T12:31:24;21.37;59.73
72288;SHT31;60221;45.696;16.076;2022-10-19T12:45:38;21.11;60.92
72288;SHT31;60221;45.696;16.076;2022-10-19T12:48:14;21.04;61.00
72288;SHT31;60221;45.696;16.076;2022-10-19T12:50:56;20.97;60.95
72288;SHT31;60221;45.696;16.076;2022-10-19T12:53:36;20.90;60.92
72288;SHT31;60221;45.696;16.076;2022-10-19T12:58:48;20.83;61.03
72288;SHT31;60221;45.696;16.076;2022-10-19T13:04:22;20.73;60.46
72288;SHT31;60221;45.696;16.076;2022-10-19T13:09:34;20.59;60.98
72288;SHT31;60221;45.696;16.076;2022-10-19T13:14:57;20.58;61.30
72288;SHT31;60221;45.696;16.076;2022-10-19T13:17:38;20.58;61.47
72288;SHT31;60221;45.696;16.076;2022-10-19T13:25:37;20.58;61.18
72288;SHT31;60221;45.696;16.076;2022-10-19T13:53:06;20.59;61.73
72288;SHT31;60221;45.696;16.076;2022-10-19T13:56:16;20.53;61.81
72288;SHT31;60221;45.696;16.076;2022-10-19T14:07:35;21.21;62.64
72288;SHT31;60221;45.696;16.076;2022-10-19T14:10:17;21.27;61.56
72288;SHT31;60221;45.696;16.076;2022-10-19T14:12:44;21.14;61.23
72288;SHT31;60221;45.696;16.076;2022-10-19T14:15:27;21.14;61.81
72288;SHT31;60221;45.696;16.076;2022-10-19T14:17:55;21.52;62.18
72288;SHT31;60221;45.696;16.076;2022-10-19T14:20:32;21.79;61.21
72288;SHT31;60221;45.696;16.076;2022-10-19T14:23:22;21.85;59.69
72288;SHT31;60221;45.696;16.076;2022-10-19T14:25:52;21.62;58.68
72288;SHT31;60221;45.696;16.076;2022-10-19T14:28:21;21.24;58.62
72288;SHT31;60221;45.696;16.076;2022-10-19T14:31:05;20.94;59.14
72288;SHT31;60221;45.696;16.076;2022-10-19T14:33:36;20.71;59.40
72288;SHT31;60221;45.696;16.076;2022-10-19T14:36:06;20.49;59.87
72288;SHT31;60221;45.696;16.076;2022-10-19T14:38:36;20.34;60.30
72288;SHT31;60221;45.696;16.076;2022-10-19T14:41:20;20.18;60.78
72288;SHT31;60221;45.696;16.076;2022-10-19T14:43:46;20.04;60.99
72288;SHT31;60221;45.696;16.076;2022-10-19T14:46:14;19.88;61.55
72288;SHT31;60221;45.696;16.076;2022-10-19T14:48:49;19.76;62.03
72288;SHT31;60221;45.696;16.076;2022-10-19T14:51:38;19.63;62.46
72288;SHT31;60221;45.696;16.076;2022-10-19T14:54:27;20.29;65.81
72288;SHT31;60221;45.696;16.076;2022-10-19T15:02:29;20.56;61.50
72288;SHT31;60221;45.696;16.076;2022-10-19T15:04:58;20.60;62.15
72288;SHT31;60221;45.696;16.076;2022-10-19T15:07:41;20.69;61.22
72288;SHT31;60221;45.696;16.076;2022-10-19T15:10:27;20.55;60.83
72288;SHT31;60221;45.696;16.076;2022-10-19T15:13:02;20.69;61.39
72288;SHT31;60221;45.696;16.076;2022-10-19T15:15:31;20.79;60.78
72288;SHT31;60221;45.696;16.076;2022-10-19T15:18:03;20.78;60.26
72288;SHT31;60221;45.696;16.076;2022-10-19T15:20:36;21.10;61.15
72288;SHT31;60221;45.696;16.076;2022-10-19T15:26:01;21.97;56.10
72288;SHT31;60221;45.696;16.076;2022-10-19T15:28:35;21.33;56.20
72288;SHT31;60221;45.696;16.076;2022-10-19T15:31:19;20.86;57.01
72288;SHT31;60221;45.696;16.076;2022-10-19T15:33:50;20.45;57.67
72288;SHT31;60221;45.696;16.076;2022-10-19T15:36:18;20.17;58.43
72288;SHT31;60221;45.696;16.076;2022-10-19T15:39:00;19.90;59.17
72288;SHT31;60221;45.696;16.076;2022-10-19T15:41:30;19.65;60.20
72288;SHT31;60221;45.696;16.076;2022-10-19T15:44:03;19.42;60.95
72288;SHT31;60221;45.696;16.076;2022-10-19T15:51:53;19.79;67.84
72288;SHT31;60221;45.696;16.076;2022-10-19T15:54:19;21.15;64.48
72288;SHT31;60221;45.696;16.076;2022-10-19T15:56:49;21.81;60.04
72288;SHT31;60221;45.696;16.076;2022-10-19T15:59:20;21.40;57.80
72288;SHT31;60221;45.696;16.076;2022-10-19T16:01:47;20.68;58.02
72288;SHT31;60221;45.696;16.076;2022-10-19T16:04:14;20.13;58.99
72288;SHT31;60221;45.696;16.076;2022-10-19T16:06:44;19.69;59.90
72288;SHT31;60221;45.696;16.076;2022-10-19T16:09:18;19.36;60.74
72288;SHT31;60221;45.696;16.076;2022-10-19T16:11:45;19.05;61.56
72288;SHT31;60221;45.696;16.076;2022-10-19T16:14:11;18.82;62.41
72288;SHT31;60221;45.696;16.076;2022-10-19T16:16:38;19.44;67.71
72288;SHT31;60221;45.696;16.076;2022-10-19T16:19:05;20.75;65.08
72288;SHT31;60221;45.696;16.076;2022-10-19T16:21:34;21.31;61.81
72288;SHT31;60221;45.696;16.076;2022-10-19T16:24:01;21.72;60.09
72288;SHT31;60221;45.696;16.076;2022-10-19T16:26:28;22.00;58.95
72288;SHT31;60221;45.696;16.076;2022-10-19T16:28:57;21.66;57.01
72288;SHT31;60221;45.696;16.076;2022-10-19T16:31:24;20.90;57.46
72288;SHT31;60221;45.696;16.076;2022-10-19T16:33:50;20.28;58.65
72288;SHT31;60221;45.696;16.076;2022-10-19T16:36:16;19.80;59.83
72288;SHT31;60221;45.696;16.076;2022-10-19T16:38:46;19.39;61.05
72288;SHT31;60221;45.696;16.076;2022-10-19T16:41:12;19.04;61.76
72288;SHT31;60221;45.696;16.076;2022-10-19T16:43:39;18.76;62.46
72288;SHT31;60221;45.696;16.076;2022-10-19T16:46:06;18.87;64.92
72288;SHT31;60221;45.696;16.076;2022-10-19T16:48:32;19.04;64.74
72288;SHT31;60221;45.696;16.076;2022-10-19T16:51:42;18.87;63.94
72288;SHT31;60221;45.696;16.076;2022-10-19T16:53:42;18.55;64.19
72288;SHT31;60221;45.696;16.076;2022-10-19T16:56:12;18.33;64.75
72288;SHT31;60221;45.696;16.076;2022-10-19T16:58:39;18.42;67.73
72288;SHT31;60221;45.696;16.076;2022-10-19T17:01:08;19.17;67.34
72288;SHT31;60221;45.696;16.076;2022-10-19T17:03:35;19.32;65.50
72288;SHT31;60221;45.696;16.076;2022-10-19T17:06:06;19.19;64.53
72288;SHT31;60221;45.696;16.076;2022-10-19T17:08:35;19.04;64.76
72288;SHT31;60221;45.696;16.076;2022-10-19T17:11:15;19.07;65.28
72288;SHT31;60221;45.696;16.076;2022-10-19T17:13:44;19.08;65.11
72288;SHT31;60221;45.696;16.076;2022-10-19T17:16:11;19.07;65.13
72288;SHT31;60221;45.696;16.076;2022-10-19T17:18:38;19.07;65.22
72288;SHT31;60221;45.696;16.076;2022-10-19T17:21:12;19.08;65.06
72288;SHT31;60221;45.696;16.076;2022-10-19T17:23:40;19.05;64.39
72288;SHT31;60221;45.696;16.076;2022-10-19T17:26:08;19.10;64.06
72288;SHT31;60221;45.696;16.076;2022-10-19T17:28:37;18.97;63.54
72288;SHT31;60221;45.696;16.076;2022-10-19T17:31:08;18.84;64.09
72288;SHT31;60221;45.696;16.076;2022-10-19T17:33:36;18.78;64.39
72288;SHT31;60221;45.696;16.076;2022-10-19T17:36:07;18.76;64.63
72288;SHT31;60221;45.696;16.076;2022-10-19T17:38:35;18.73;64.84
72288;SHT31;60221;45.696;16.076;2022-10-19T17:41:05;18.71;65.20
72288;SHT31;60221;45.696;16.076;2022-10-19T17:43:33;18.76;65.30
72288;SHT31;60221;45.696;16.076;2022-10-19T17:46:06;18.70;64.68
72288;SHT31;60221;45.696;16.076;2022-10-19T17:48:34;18.52;64.99
72288;SHT31;60221;45.696;16.076;2022-10-19T17:51:10;18.40;64.89
72288;SHT31;60221;45.696;16.076;2022-10-19T17:53:33;18.27;65.15
72288;SHT31;60221;45.696;16.076;2022-10-19T17:56:03;18.31;66.22
72288;SHT31;60221;45.696;16.076;2022-10-19T17:58:31;18.66;66.88
72288;SHT31;60221;45.696;16.076;2022-10-19T18:00:59;19.07;66.40
72288;SHT31;60221;45.696;16.076;2022-10-19T18:03:28;19.19;64.88
72288;SHT31;60221;45.696;16.076;2022-10-19T18:05:59;19.18;64.57